createdAt,value
2022-10-09T00:00:11.554Z,0.00
2022-10-09T00:01:11.534Z,0.00
2022-10-09T00:02:11.527Z,0.00
2022-10-09T00:03:11.504Z,0.00
2022-10-09T00:04:11.484Z,0.00
2022-10-09T00:05:11.546Z,0.00
2022-10-09T00:06:11.463Z,0.00
2022-10-09T00:07:11.457Z,0.00
2022-10-09T00:08:11.443Z,0.00
2022-10-09T00:09:11.423Z,0.00
2022-10-09T00:10:11.435Z,0.00
2022-10-09T00:11:11.406Z,0.00
2022-10-09T00:12:11.394Z,0.00
2022-10-09T00:13:11.628Z,0.00
2022-10-09T00:14:11.353Z,0.00
2022-10-09T00:15:11.362Z,0.00
2022-10-09T00:16:11.331Z,0.00
2022-10-09T00:17:11.403Z,0.00
2022-10-09T00:18:11.299Z,0.00
2022-10-09T00:19:11.290Z,0.00
2022-10-09T00:20:11.289Z,0.00
2022-10-09T00:21:11.271Z,0.00
2022-10-09T00:22:11.252Z,0.00
2022-10-09T00:23:11.240Z,0.00
2022-10-09T00:24:11.218Z,0.00
2022-10-09T00:25:11.229Z,0.00
2022-10-09T00:26:11.202Z,0.00
2022-10-09T00:27:11.190Z,0.00
2022-10-09T00:28:11.191Z,0.00
2022-10-09T00:29:11.162Z,0.00
2022-10-09T00:30:11.157Z,0.00
2022-10-09T00:31:11.185Z,0.00
2022-10-09T00:32:11.117Z,0.00
2022-10-09T00:33:11.107Z,0.00
2022-10-09T00:34:11.108Z,0.00
2022-10-09T00:35:11.107Z,0.00
2022-10-09T00:36:11.079Z,0.00
2022-10-09T00:37:11.047Z,0.00
2022-10-09T00:38:11.037Z,0.00
2022-10-09T00:39:11.015Z,0.00
2022-10-09T00:40:11.015Z,0.00
2022-10-09T00:41:11.002Z,0.00
2022-10-09T00:42:10.980Z,0.00
2022-10-09T00:43:10.965Z,0.00
2022-10-09T00:44:10.946Z,0.00
2022-10-09T00:45:10.946Z,0.00
2022-10-09T00:46:10.982Z,0.00
2022-10-09T00:47:10.929Z,0.00
2022-10-09T00:48:10.917Z,0.00
2022-10-09T00:49:10.916Z,0.00
2022-10-09T00:50:10.875Z,0.00
2022-10-09T00:51:10.865Z,0.00
2022-10-09T00:52:10.844Z,0.00
2022-10-09T00:53:10.835Z,0.00
2022-10-09T00:54:10.814Z,0.00
2022-10-09T00:55:10.820Z,0.00
2022-10-09T00:56:10.814Z,0.00
2022-10-09T00:57:10.785Z,0.00
2022-10-09T00:58:10.763Z,0.00
2022-10-09T00:59:10.753Z,0.00
2022-10-09T01:00:10.750Z,0.00
2022-10-09T01:01:10.765Z,0.00
2022-10-09T01:02:10.770Z,0.00
2022-10-09T01:03:10.713Z,0.00
2022-10-09T01:04:10.684Z,0.00
2022-10-09T01:05:10.683Z,0.00
2022-10-09T01:06:10.652Z,0.00
2022-10-09T01:07:10.642Z,0.00
2022-10-09T01:08:10.633Z,0.00
2022-10-09T01:09:10.622Z,0.00
2022-10-09T01:10:10.629Z,0.00
2022-10-09T01:11:10.589Z,0.00
2022-10-09T01:12:10.575Z,0.00
2022-10-09T01:13:10.560Z,0.00
2022-10-09T01:14:10.540Z,0.00
2022-10-09T01:15:10.555Z,0.00
2022-10-09T01:16:10.535Z,0.00
2022-10-09T01:17:10.510Z,0.00
2022-10-09T01:18:10.490Z,0.00
2022-10-09T01:19:10.479Z,0.00
2022-10-09T01:20:10.479Z,0.00
2022-10-09T01:21:10.451Z,0.00
2022-10-09T01:22:10.439Z,0.00
2022-10-09T01:23:10.427Z,0.00
2022-10-09T01:24:10.418Z,0.00
2022-10-09T01:25:10.409Z,0.00
2022-10-09T01:26:10.393Z,0.00
2022-10-09T01:27:10.369Z,0.00
2022-10-09T01:28:10.413Z,0.00
2022-10-09T01:29:10.346Z,0.00
2022-10-09T01:30:10.337Z,0.00
2022-10-09T01:31:10.336Z,0.00
2022-10-09T01:32:10.314Z,0.00
2022-10-09T01:33:10.305Z,0.00
2022-10-09T01:34:10.287Z,0.00
2022-10-09T01:35:10.275Z,0.00
2022-10-09T01:36:10.258Z,0.00
2022-10-09T01:37:10.245Z,0.00
2022-10-09T01:38:10.238Z,0.00
2022-10-09T01:39:10.206Z,0.00
2022-10-09T01:40:10.215Z,0.00
2022-10-09T01:41:10.185Z,0.00
2022-10-09T01:42:10.183Z,0.00
2022-10-09T01:43:10.154Z,0.00
2022-10-09T01:44:10.145Z,0.00
2022-10-09T01:45:10.135Z,0.00
2022-10-09T01:46:10.163Z,0.00
2022-10-09T01:47:10.105Z,0.00
2022-10-09T01:48:10.102Z,0.00
2022-10-09T01:49:10.083Z,0.00
2022-10-09T01:50:10.078Z,0.00
2022-10-09T01:51:10.044Z,0.00
2022-10-09T01:52:10.037Z,0.00
2022-10-09T01:53:10.014Z,0.00
2022-10-09T01:54:10.011Z,0.00
2022-10-09T01:55:10.002Z,0.00
2022-10-09T01:56:09.990Z,0.00
2022-10-09T01:57:09.981Z,0.00
2022-10-09T01:58:09.953Z,0.00
2022-10-09T01:59:14.832Z,0.00
2022-10-09T02:00:10.932Z,0.00
2022-10-09T02:01:09.980Z,0.00
2022-10-09T02:02:10.036Z,0.00
2022-10-09T02:03:09.891Z,0.00
2022-10-09T02:04:09.880Z,0.00
2022-10-09T02:05:09.862Z,0.00
2022-10-09T02:06:09.854Z,0.00
2022-10-09T02:07:09.837Z,0.00
2022-10-09T02:08:09.820Z,0.00
2022-10-09T02:09:09.814Z,0.00
2022-10-09T02:10:09.808Z,0.00
2022-10-09T02:11:09.780Z,0.00
2022-10-09T02:12:09.774Z,0.00
2022-10-09T02:13:09.751Z,0.00
2022-10-09T02:14:09.749Z,0.00
2022-10-09T02:15:09.736Z,0.00
2022-10-09T02:16:09.782Z,0.00
2022-10-09T02:17:09.714Z,0.00
2022-10-09T02:18:09.699Z,0.00
2022-10-09T02:19:09.681Z,0.00
2022-10-09T02:20:09.677Z,0.00
2022-10-09T02:21:09.659Z,0.00
2022-10-09T02:22:09.638Z,0.00
2022-10-09T02:23:09.630Z,0.00
2022-10-09T02:24:09.617Z,0.00
2022-10-09T02:25:09.609Z,0.00
2022-10-09T02:26:09.600Z,0.00
2022-10-09T02:27:09.568Z,0.00
2022-10-09T02:28:09.631Z,0.00
2022-10-09T02:29:09.548Z,0.00
2022-10-09T02:30:09.565Z,0.00
2022-10-09T02:31:09.566Z,0.00
2022-10-09T02:32:09.520Z,0.00
2022-10-09T02:33:09.515Z,0.00
2022-10-09T02:34:09.486Z,0.00
2022-10-09T02:35:09.519Z,0.00
2022-10-09T02:36:09.483Z,0.00
2022-10-09T02:37:09.446Z,0.00
2022-10-09T02:38:09.434Z,0.00
2022-10-09T02:39:09.418Z,0.00
2022-10-09T02:40:10.912Z,0.00
2022-10-09T02:41:09.394Z,0.00
2022-10-09T02:42:09.385Z,0.00
2022-10-09T02:43:09.372Z,0.00
2022-10-09T02:44:09.362Z,0.00
2022-10-09T02:45:09.391Z,0.00
2022-10-09T02:46:09.370Z,0.00
2022-10-09T02:47:09.314Z,0.00
2022-10-09T02:48:09.302Z,0.00
2022-10-09T02:49:09.293Z,0.00
2022-10-09T02:50:09.293Z,0.00
2022-10-09T02:51:09.272Z,0.00
2022-10-09T02:52:09.257Z,0.00
2022-10-09T02:53:09.253Z,0.00
2022-10-09T02:54:09.232Z,0.00
2022-10-09T02:55:09.226Z,0.00
2022-10-09T02:56:09.206Z,0.00
2022-10-09T02:57:09.190Z,0.00
2022-10-09T02:58:09.190Z,0.00
2022-10-09T02:59:09.160Z,0.00
2022-10-09T03:00:09.174Z,0.00
2022-10-09T03:01:09.143Z,0.00
2022-10-09T03:02:09.250Z,0.00
2022-10-09T03:03:09.217Z,0.00
2022-10-09T03:04:09.105Z,0.00
2022-10-09T03:05:09.111Z,0.00
2022-10-09T03:06:09.121Z,0.00
2022-10-09T03:07:09.061Z,0.00
2022-10-09T03:08:09.104Z,0.00
2022-10-09T03:09:09.030Z,0.00
2022-10-09T03:10:09.040Z,0.00
2022-10-09T03:11:09.009Z,0.00
2022-10-09T03:12:09.000Z,0.00
2022-10-09T03:13:08.998Z,0.00
2022-10-09T03:14:08.994Z,0.00
2022-10-09T03:15:09.003Z,0.00
2022-10-09T03:16:09.008Z,0.00
2022-10-09T03:17:08.930Z,0.00
2022-10-09T03:18:08.925Z,0.00
2022-10-09T03:19:08.897Z,0.00
2022-10-09T03:20:08.906Z,0.00
2022-10-09T03:21:08.880Z,0.00
2022-10-09T03:22:08.866Z,0.00
2022-10-09T03:23:08.849Z,0.00
2022-10-09T03:24:08.844Z,0.00
2022-10-09T03:25:08.837Z,0.00
2022-10-09T03:26:08.816Z,0.00
2022-10-09T03:27:08.803Z,0.00
2022-10-09T03:28:08.833Z,0.00
2022-10-09T03:29:08.774Z,0.00
2022-10-09T03:30:08.774Z,0.00
2022-10-09T03:31:08.804Z,0.00
2022-10-09T03:32:08.797Z,0.00
2022-10-09T03:33:08.725Z,0.00
2022-10-09T03:34:08.714Z,0.00
2022-10-09T03:35:08.704Z,0.00
2022-10-09T03:36:08.683Z,0.00
2022-10-09T03:37:08.668Z,0.00
2022-10-09T03:38:08.655Z,0.00
2022-10-09T03:39:08.644Z,0.00
2022-10-09T03:40:08.645Z,0.00
2022-10-09T03:41:08.622Z,0.00
2022-10-09T03:42:08.610Z,0.00
2022-10-09T03:43:08.591Z,0.00
2022-10-09T03:44:08.588Z,0.00
2022-10-09T03:45:08.588Z,0.00
2022-10-09T03:46:08.599Z,0.00
2022-10-09T03:47:08.540Z,0.00
2022-10-09T03:48:08.532Z,0.00
2022-10-09T03:49:08.521Z,0.00
2022-10-09T03:50:08.520Z,0.00
2022-10-09T03:51:08.489Z,0.00
2022-10-09T03:52:08.501Z,0.00
2022-10-09T03:53:08.460Z,0.00
2022-10-09T03:54:08.483Z,0.00
2022-10-09T03:55:08.443Z,0.00
2022-10-09T03:56:08.427Z,0.00
2022-10-09T03:57:08.412Z,0.00
2022-10-09T03:58:08.425Z,0.00
2022-10-09T03:59:08.408Z,0.00
2022-10-09T04:00:08.371Z,0.00
2022-10-09T04:01:08.471Z,0.00
2022-10-09T04:02:08.409Z,0.00
2022-10-09T04:03:08.339Z,0.00
2022-10-09T04:04:08.328Z,0.00
2022-10-09T04:05:08.310Z,0.00
2022-10-09T04:06:08.299Z,0.00
2022-10-09T04:07:08.289Z,0.00
2022-10-09T04:08:08.277Z,0.00
2022-10-09T04:09:08.320Z,0.00
2022-10-09T04:10:08.248Z,0.00
2022-10-09T04:11:08.227Z,0.00
2022-10-09T04:12:08.228Z,0.00
2022-10-09T04:13:08.210Z,0.00
2022-10-09T04:14:08.213Z,0.00
2022-10-09T04:15:08.175Z,0.00
2022-10-09T04:16:08.236Z,0.00
2022-10-09T04:17:08.160Z,0.00
2022-10-09T04:18:08.148Z,0.00
2022-10-09T04:19:08.136Z,0.00
2022-10-09T04:20:08.127Z,0.00
2022-10-09T04:21:08.104Z,0.00
2022-10-09T04:22:08.096Z,0.00
2022-10-09T04:23:08.086Z,0.00
2022-10-09T04:24:08.075Z,0.00
2022-10-09T04:25:08.054Z,0.00
2022-10-09T04:26:08.044Z,0.00
2022-10-09T04:27:08.023Z,0.00
2022-10-09T04:28:08.062Z,0.00
2022-10-09T04:29:08.017Z,0.00
2022-10-09T04:30:08.002Z,0.00
2022-10-09T04:31:08.031Z,0.00
2022-10-09T04:32:07.968Z,0.00
2022-10-09T04:33:12.593Z,0.00
2022-10-09T04:34:08.963Z,0.00
2022-10-09T04:35:07.926Z,0.00
2022-10-09T04:36:07.911Z,0.00
2022-10-09T04:37:07.894Z,0.00
2022-10-09T04:38:07.895Z,0.00
2022-10-09T04:39:07.882Z,0.00
2022-10-09T04:40:07.861Z,0.00
2022-10-09T04:41:07.841Z,0.00
2022-10-09T04:42:07.839Z,0.00
2022-10-09T04:43:07.820Z,0.00
2022-10-09T04:44:07.822Z,0.00
2022-10-09T04:45:07.794Z,0.00
2022-10-09T04:46:07.837Z,0.00
2022-10-09T04:47:11.118Z,0.00
2022-10-09T04:48:07.768Z,0.00
2022-10-09T04:49:07.750Z,0.00
2022-10-09T04:50:07.730Z,0.00
2022-10-09T04:51:07.720Z,0.00
2022-10-09T04:52:07.710Z,0.00
2022-10-09T04:53:07.690Z,0.00
2022-10-09T04:54:07.697Z,0.00
2022-10-09T04:55:07.667Z,0.00
2022-10-09T04:56:07.662Z,0.00
2022-10-09T04:57:07.648Z,0.00
2022-10-09T04:58:07.648Z,0.00
2022-10-09T04:59:07.617Z,0.00
2022-10-09T05:00:07.611Z,0.00
2022-10-09T05:01:07.675Z,0.00
2022-10-09T05:02:07.613Z,0.00
2022-10-09T05:03:07.577Z,0.00
2022-10-09T05:04:07.574Z,0.00
2022-10-09T05:05:07.540Z,0.00
2022-10-09T05:06:07.544Z,0.00
2022-10-09T05:07:07.519Z,0.00
2022-10-09T05:08:07.521Z,0.00
2022-10-09T05:09:07.490Z,0.00
2022-10-09T05:10:07.489Z,0.00
2022-10-09T05:11:07.470Z,0.00
2022-10-09T05:12:07.465Z,0.00
2022-10-09T05:13:07.470Z,0.00
2022-10-09T05:14:07.446Z,0.00
2022-10-09T05:15:07.413Z,0.00
2022-10-09T05:16:07.444Z,0.00
2022-10-09T05:17:15.211Z,5.62
2022-10-09T05:18:08.382Z,5.62
2022-10-09T05:19:07.357Z,5.62
2022-10-09T05:20:07.355Z,5.62
2022-10-09T05:21:07.333Z,5.62
2022-10-09T05:22:07.325Z,5.62
2022-10-09T05:23:07.311Z,5.62
2022-10-09T05:24:10.394Z,5.62
2022-10-09T05:25:07.271Z,5.62
2022-10-09T05:26:07.282Z,11.25
2022-10-09T05:27:07.272Z,11.25
2022-10-09T05:28:07.289Z,11.25
2022-10-09T05:29:07.221Z,11.25
2022-10-09T05:30:07.212Z,11.25
2022-10-09T05:31:07.210Z,16.88
2022-10-09T05:32:07.213Z,16.88
2022-10-09T05:33:07.194Z,16.88
2022-10-09T05:34:07.186Z,16.88
2022-10-09T05:35:07.154Z,16.88
2022-10-09T05:36:07.141Z,22.50
2022-10-09T05:37:07.235Z,22.50
2022-10-09T05:38:07.120Z,22.50
2022-10-09T05:39:07.101Z,22.50
2022-10-09T05:40:07.081Z,28.12
2022-10-09T05:41:07.079Z,28.12
2022-10-09T05:42:07.067Z,28.12
2022-10-09T05:43:07.060Z,28.12
2022-10-09T05:44:07.031Z,33.75
2022-10-09T05:45:07.018Z,33.75
2022-10-09T05:46:07.096Z,33.75
2022-10-09T05:47:07.000Z,39.38
2022-10-09T05:48:07.001Z,39.38
2022-10-09T05:49:06.967Z,39.38
2022-10-09T05:50:06.956Z,45.00
2022-10-09T05:51:06.945Z,45.00
2022-10-09T05:52:06.938Z,45.00
2022-10-09T05:53:06.939Z,50.62
2022-10-09T05:54:06.907Z,56.25
2022-10-09T05:55:06.908Z,56.25
2022-10-09T05:56:06.887Z,61.88
2022-10-09T05:57:06.928Z,73.12
2022-10-09T05:58:06.867Z,67.50
2022-10-09T05:59:06.862Z,67.50
2022-10-09T06:00:06.842Z,73.12
2022-10-09T06:01:06.845Z,73.12
2022-10-09T06:02:06.853Z,73.12
2022-10-09T06:03:06.810Z,84.38
2022-10-09T06:04:06.776Z,90.00
2022-10-09T06:05:06.764Z,118.12
2022-10-09T06:06:06.756Z,174.38
2022-10-09T06:07:06.749Z,461.25
2022-10-09T06:08:06.754Z,596.25
2022-10-09T06:09:06.720Z,264.38
2022-10-09T06:10:06.694Z,180.00
2022-10-09T06:11:06.692Z,129.38
2022-10-09T06:12:06.681Z,157.50
2022-10-09T06:13:06.679Z,270.00
2022-10-09T06:14:06.643Z,286.88
2022-10-09T06:15:06.652Z,213.75
2022-10-09T06:16:06.613Z,320.62
2022-10-09T06:17:06.690Z,303.75
2022-10-09T06:18:06.604Z,106.88
2022-10-09T06:19:06.583Z,95.62
2022-10-09T06:20:06.562Z,95.62
2022-10-09T06:21:06.551Z,101.25
2022-10-09T06:22:06.538Z,101.25
2022-10-09T06:23:06.539Z,106.88
2022-10-09T06:24:06.514Z,140.62
2022-10-09T06:25:06.501Z,118.12
2022-10-09T06:26:06.481Z,118.12
2022-10-09T06:27:06.479Z,106.88
2022-10-09T06:28:06.488Z,106.88
2022-10-09T06:29:06.445Z,106.88
2022-10-09T06:30:06.428Z,157.50
2022-10-09T06:31:06.493Z,337.50
2022-10-09T06:32:06.408Z,320.62
2022-10-09T06:33:06.403Z,253.12
2022-10-09T06:34:06.381Z,258.75
2022-10-09T06:35:06.385Z,157.50
2022-10-09T06:36:10.182Z,146.25
2022-10-09T06:37:06.337Z,135.00
2022-10-09T06:38:06.340Z,146.25
2022-10-09T06:39:06.317Z,151.88
2022-10-09T06:40:06.324Z,123.75
2022-10-09T06:41:06.301Z,118.12
2022-10-09T06:42:06.279Z,123.75
2022-10-09T06:43:06.447Z,129.38
2022-10-09T06:44:06.274Z,123.75
2022-10-09T06:45:06.271Z,129.38
2022-10-09T06:46:06.254Z,129.38
2022-10-09T06:47:06.207Z,123.75
2022-10-09T06:48:06.204Z,123.75
2022-10-09T06:49:06.184Z,123.75
2022-10-09T06:50:06.167Z,123.75
2022-10-09T06:51:06.157Z,123.75
2022-10-09T06:52:06.150Z,123.75
2022-10-09T06:53:06.149Z,123.75
2022-10-09T06:54:06.119Z,123.75
2022-10-09T06:55:06.104Z,123.75
2022-10-09T06:56:06.087Z,135.00
2022-10-09T06:57:06.074Z,140.62
2022-10-09T06:58:06.064Z,129.38
2022-10-09T06:59:06.065Z,129.38
2022-10-09T07:00:06.038Z,135.00
2022-10-09T07:01:06.070Z,185.62
2022-10-09T07:02:06.083Z,225.00
2022-10-09T07:03:06.111Z,157.50
2022-10-09T07:04:05.983Z,140.62
2022-10-09T07:05:05.984Z,174.38
2022-10-09T07:06:05.954Z,253.12
2022-10-09T07:07:05.942Z,230.62
2022-10-09T07:08:12.950Z,286.88
2022-10-09T07:09:05.920Z,416.25
2022-10-09T07:10:05.909Z,900.00
2022-10-09T07:11:05.900Z,2205.00
2022-10-09T07:12:05.880Z,2154.38
2022-10-09T07:13:05.889Z,725.62
2022-10-09T07:14:05.865Z,427.50
2022-10-09T07:15:05.846Z,731.25
2022-10-09T07:16:05.851Z,1698.75
2022-10-09T07:17:05.820Z,2328.75
2022-10-09T07:18:05.815Z,1659.38
2022-10-09T07:19:05.792Z,843.75
2022-10-09T07:20:05.766Z,1096.88
2022-10-09T07:21:05.767Z,1276.88
2022-10-09T07:22:05.747Z,646.88
2022-10-09T07:23:05.808Z,247.50
2022-10-09T07:24:05.732Z,320.62
2022-10-09T07:25:05.708Z,478.12
2022-10-09T07:26:05.705Z,871.88
2022-10-09T07:27:05.692Z,551.25
2022-10-09T07:28:05.720Z,326.25
2022-10-09T07:29:05.657Z,1035.00
2022-10-09T07:30:05.657Z,2458.12
2022-10-09T07:31:05.734Z,2913.75
2022-10-09T07:32:10.202Z,1873.12
2022-10-09T07:33:06.615Z,1659.38
2022-10-09T07:34:05.603Z,1873.12
2022-10-09T07:35:05.584Z,1524.38
2022-10-09T07:36:05.558Z,1305.00
2022-10-09T07:37:05.561Z,1996.88
2022-10-09T07:38:05.548Z,3330.00
2022-10-09T07:39:05.527Z,2621.25
2022-10-09T07:40:05.521Z,1209.38
2022-10-09T07:41:05.496Z,1265.62
2022-10-09T07:42:05.500Z,2475.00
2022-10-09T07:43:05.484Z,2958.75
2022-10-09T07:44:05.460Z,1811.25
2022-10-09T07:45:05.466Z,2019.38
2022-10-09T07:46:05.471Z,2176.88
2022-10-09T07:47:05.438Z,1659.38
2022-10-09T07:48:05.419Z,1378.12
2022-10-09T07:49:05.420Z,2036.25
2022-10-09T07:50:05.375Z,3150.00
2022-10-09T07:51:05.372Z,2452.50
2022-10-09T07:52:05.337Z,1248.75
2022-10-09T07:53:05.348Z,1243.12
2022-10-09T07:54:05.316Z,1991.25
2022-10-09T07:55:05.306Z,1901.25
2022-10-09T07:56:05.298Z,1710.00
2022-10-09T07:57:05.295Z,2340.00
2022-10-09T07:58:05.276Z,1631.25
2022-10-09T07:59:05.254Z,1051.88
2022-10-09T08:00:05.239Z,2002.50
2022-10-09T08:01:05.240Z,3240.00
2022-10-09T08:02:05.348Z,2131.88
2022-10-09T08:03:05.251Z,1428.75
2022-10-09T08:04:05.189Z,1749.38
2022-10-09T08:05:05.180Z,1996.88
2022-10-09T08:06:05.157Z,1845.00
2022-10-09T08:07:05.157Z,2649.38
2022-10-09T08:08:05.147Z,2716.88
2022-10-09T08:09:05.136Z,1333.12
2022-10-09T08:10:05.110Z,1496.25
2022-10-09T08:11:05.087Z,2835.00
2022-10-09T08:12:05.089Z,2430.00
2022-10-09T08:13:05.087Z,1558.12
2022-10-09T08:14:05.060Z,1839.38
2022-10-09T08:15:05.040Z,1715.62
2022-10-09T08:16:05.080Z,1991.25
2022-10-09T08:17:05.020Z,3116.25
2022-10-09T08:18:05.020Z,2120.62
2022-10-09T08:19:04.991Z,1226.25
2022-10-09T08:20:04.976Z,1698.75
2022-10-09T08:21:04.962Z,1614.38
2022-10-09T08:22:04.939Z,1575.00
2022-10-09T08:23:04.978Z,1867.50
2022-10-09T08:24:04.921Z,1490.62
2022-10-09T08:25:04.924Z,1890.00
2022-10-09T08:26:04.887Z,3161.25
2022-10-09T08:27:04.889Z,1805.62
2022-10-09T08:28:04.989Z,1468.12
2022-10-09T08:29:04.860Z,1929.38
2022-10-09T08:30:04.837Z,1850.62
2022-10-09T08:31:04.971Z,2334.38
2022-10-09T08:32:04.812Z,1850.62
2022-10-09T08:33:04.822Z,1355.62
2022-10-09T08:34:04.779Z,2632.50
2022-10-09T08:35:04.772Z,2188.12
2022-10-09T08:36:04.751Z,1265.62
2022-10-09T08:37:04.754Z,877.50
2022-10-09T08:38:04.749Z,354.38
2022-10-09T08:39:04.722Z,320.62
2022-10-09T08:40:04.700Z,309.38
2022-10-09T08:41:04.705Z,286.88
2022-10-09T08:42:04.682Z,298.12
2022-10-09T08:43:04.684Z,292.50
2022-10-09T08:44:04.654Z,292.50
2022-10-09T08:45:04.643Z,281.25
2022-10-09T08:46:04.656Z,281.25
2022-10-09T08:47:04.623Z,275.62
2022-10-09T08:48:04.623Z,270.00
2022-10-09T08:49:04.605Z,270.00
2022-10-09T08:50:04.583Z,270.00
2022-10-09T08:51:04.575Z,264.38
2022-10-09T08:52:04.543Z,264.38
2022-10-09T08:53:04.560Z,264.38
2022-10-09T08:54:04.556Z,258.75
2022-10-09T08:55:04.514Z,258.75
2022-10-09T08:56:04.493Z,258.75
2022-10-09T08:57:04.472Z,258.75
2022-10-09T08:58:04.484Z,258.75
2022-10-09T08:59:04.461Z,253.12
2022-10-09T09:00:04.489Z,253.12
2022-10-09T09:01:04.434Z,253.12
2022-10-09T09:02:04.456Z,247.50
2022-10-09T09:03:04.479Z,247.50
2022-10-09T09:04:04.390Z,247.50
2022-10-09T09:05:04.383Z,247.50
2022-10-09T09:06:04.355Z,241.88
2022-10-09T09:07:04.355Z,241.88
2022-10-09T09:08:04.343Z,241.88
2022-10-09T09:09:04.359Z,236.25
2022-10-09T09:10:04.325Z,236.25
2022-10-09T09:11:04.309Z,236.25
2022-10-09T09:12:04.313Z,236.25
2022-10-09T09:13:04.285Z,236.25
2022-10-09T09:14:04.265Z,230.62
2022-10-09T09:15:04.247Z,230.62
2022-10-09T09:16:04.314Z,230.62
2022-10-09T09:17:04.235Z,230.62
2022-10-09T09:18:04.210Z,230.62
2022-10-09T09:19:04.192Z,225.00
2022-10-09T09:20:04.190Z,225.00
2022-10-09T09:21:04.175Z,225.00
2022-10-09T09:22:04.167Z,225.00
2022-10-09T09:23:04.146Z,225.00
2022-10-09T09:24:04.125Z,225.00
2022-10-09T09:25:04.125Z,225.00
2022-10-09T09:26:04.105Z,225.00
2022-10-09T09:27:04.106Z,219.38
2022-10-09T09:28:05.962Z,219.38
2022-10-09T09:29:04.068Z,219.38
2022-10-09T09:30:04.053Z,219.38
2022-10-09T09:31:04.095Z,213.75
2022-10-09T09:32:04.037Z,213.75
2022-10-09T09:33:04.019Z,213.75
2022-10-09T09:34:03.998Z,213.75
2022-10-09T09:35:03.999Z,213.75
2022-10-09T09:36:03.969Z,208.12
2022-10-09T09:37:03.967Z,208.12
2022-10-09T09:38:03.937Z,208.12
2022-10-09T09:41:04.902Z,202.50
2022-10-09T09:42:03.913Z,202.50
2022-10-09T09:43:10.880Z,202.50
2022-10-09T09:44:03.863Z,208.12
2022-10-09T09:45:03.858Z,202.50
2022-10-09T09:46:03.838Z,202.50
2022-10-09T09:47:03.863Z,196.88
2022-10-09T09:48:03.851Z,196.88
2022-10-09T09:49:08.544Z,202.50
2022-10-09T09:50:04.793Z,196.88
2022-10-09T09:51:27.296Z,196.88
2022-10-09T09:52:04.762Z,196.88
2022-10-09T09:53:03.758Z,196.88
2022-10-09T09:54:03.742Z,196.88
2022-10-09T09:55:03.713Z,196.88
2022-10-09T09:56:03.743Z,191.25
2022-10-09T09:57:21.946Z,191.25
2022-10-09T09:58:04.687Z,191.25
2022-10-09T09:59:03.662Z,191.25
2022-10-09T10:00:03.679Z,191.25
2022-10-09T10:01:03.722Z,185.62
2022-10-09T10:02:03.692Z,185.62
2022-10-09T10:03:03.606Z,185.62
2022-10-09T10:04:03.621Z,185.62
2022-10-09T10:05:03.584Z,185.62
2022-10-09T10:06:03.595Z,185.62
2022-10-09T10:07:03.556Z,185.62
2022-10-09T10:08:03.555Z,185.62
2022-10-09T10:09:03.532Z,185.62
2022-10-09T10:10:03.525Z,185.62
2022-10-09T10:11:03.513Z,185.62
2022-10-09T10:12:03.497Z,180.00
2022-10-09T10:13:03.475Z,180.00
2022-10-09T10:14:03.477Z,180.00
2022-10-09T10:15:03.454Z,180.00
2022-10-09T10:16:03.538Z,180.00
2022-10-09T10:17:03.824Z,185.62
2022-10-09T10:18:03.421Z,185.62
2022-10-09T10:19:04.082Z,180.00
2022-10-09T10:20:03.405Z,185.62
2022-10-09T10:21:03.815Z,180.00
2022-10-09T10:22:03.367Z,180.00
2022-10-09T10:23:03.347Z,180.00
2022-10-09T10:24:04.429Z,180.00
2022-10-09T10:25:03.326Z,180.00
2022-10-09T10:26:03.349Z,180.00
2022-10-09T10:27:03.298Z,180.00
2022-10-09T10:28:03.334Z,180.00
2022-10-09T10:29:03.263Z,180.00
2022-10-09T10:30:03.266Z,180.00
2022-10-09T10:31:03.342Z,180.00
2022-10-09T10:32:03.226Z,180.00
2022-10-09T10:33:03.207Z,180.00
2022-10-09T10:34:03.205Z,180.00
2022-10-09T10:35:03.186Z,180.00
2022-10-09T10:36:03.193Z,180.00
2022-10-09T10:37:03.550Z,180.00
2022-10-09T10:38:03.148Z,180.00
2022-10-09T10:39:03.127Z,180.00
2022-10-09T10:40:03.149Z,180.00
2022-10-09T10:41:03.117Z,180.00
2022-10-09T10:42:03.088Z,185.62
2022-10-09T10:43:03.090Z,118.12
2022-10-09T10:44:03.070Z,129.38
2022-10-09T10:45:03.049Z,185.62
2022-10-09T10:46:03.048Z,185.62
2022-10-09T10:47:03.028Z,185.62
2022-10-09T10:48:03.027Z,185.62
2022-10-09T10:49:03.001Z,185.62
2022-10-09T10:50:03.002Z,185.62
2022-10-09T10:51:02.970Z,185.62
2022-10-09T10:52:02.979Z,185.62
2022-10-09T10:53:02.949Z,185.62
2022-10-09T10:54:02.929Z,185.62
2022-10-09T10:55:02.920Z,185.62
2022-10-09T10:56:05.412Z,140.62
2022-10-09T10:57:02.888Z,135.00
2022-10-09T10:58:02.880Z,196.88
2022-10-09T10:59:02.860Z,202.50
2022-10-09T11:00:02.860Z,208.12
2022-10-09T11:01:02.871Z,208.12
2022-10-09T11:02:02.828Z,213.75
2022-10-09T11:03:02.880Z,213.75
2022-10-09T11:04:02.808Z,213.75
2022-10-09T11:05:02.805Z,180.00
2022-10-09T11:06:02.782Z,151.88
2022-10-09T11:07:02.772Z,101.25
2022-10-09T11:08:02.754Z,101.25
2022-10-09T11:09:02.742Z,168.75
2022-10-09T11:10:02.736Z,202.50
2022-10-09T11:11:02.715Z,196.88
2022-10-09T11:12:02.728Z,202.50
2022-10-09T11:13:02.972Z,202.50
2022-10-09T11:14:02.673Z,208.12
2022-10-09T11:15:02.663Z,196.88
2022-10-09T11:16:02.722Z,196.88
2022-10-09T11:17:02.635Z,191.25
2022-10-09T11:18:02.623Z,191.25
2022-10-09T11:19:02.602Z,185.62
2022-10-09T11:20:02.595Z,185.62
2022-10-09T11:21:02.565Z,185.62
2022-10-09T11:22:02.572Z,191.25
2022-10-09T11:23:02.555Z,185.62
2022-10-09T11:24:02.533Z,185.62
2022-10-09T11:25:02.535Z,191.25
2022-10-09T11:26:02.503Z,191.25
2022-10-09T11:27:03.787Z,191.25
2022-10-09T11:28:02.642Z,196.88
2022-10-09T11:29:02.470Z,191.25
2022-10-09T11:30:02.472Z,191.25
2022-10-09T11:31:02.435Z,185.62
2022-10-09T11:32:02.536Z,185.62
2022-10-09T11:33:02.426Z,191.25
2022-10-09T11:34:02.410Z,191.25
2022-10-09T11:35:02.395Z,185.62
2022-10-09T11:36:02.374Z,185.62
2022-10-09T11:37:02.364Z,185.62
2022-10-09T11:38:02.373Z,180.00
2022-10-09T11:39:02.325Z,180.00
2022-10-09T11:40:02.335Z,180.00
2022-10-09T11:41:05.099Z,180.00
2022-10-09T11:42:02.294Z,180.00
2022-10-09T11:43:02.282Z,180.00
2022-10-09T11:44:02.267Z,180.00
2022-10-09T11:45:02.254Z,180.00
2022-10-09T11:46:02.292Z,180.00
2022-10-09T11:47:02.888Z,180.00
2022-10-09T11:48:02.215Z,180.00
2022-10-09T11:49:02.197Z,180.00
2022-10-09T11:50:02.216Z,180.00
2022-10-09T11:51:02.165Z,180.00
2022-10-09T11:52:02.169Z,180.00
2022-10-09T11:53:02.137Z,180.00
2022-10-09T11:54:02.135Z,180.00
2022-10-09T11:55:02.127Z,180.00
2022-10-09T11:56:02.105Z,180.00
2022-10-09T11:57:05.152Z,174.38
2022-10-09T11:58:02.084Z,174.38
2022-10-09T11:59:02.054Z,180.00
2022-10-09T12:00:02.063Z,174.38
2022-10-09T12:01:02.156Z,174.38
2022-10-09T12:02:02.056Z,180.00
2022-10-09T12:03:02.030Z,180.00
2022-10-09T12:04:02.009Z,174.38
2022-10-09T12:05:01.995Z,174.38
2022-10-09T12:06:01.987Z,174.38
2022-10-09T12:07:01.977Z,174.38
2022-10-09T12:08:01.947Z,174.38
2022-10-09T12:09:01.935Z,174.38
2022-10-09T12:10:01.926Z,174.38
2022-10-09T12:11:01.904Z,174.38
2022-10-09T12:12:01.902Z,174.38
2022-10-09T12:13:01.884Z,174.38
2022-10-09T12:14:01.865Z,174.38
2022-10-09T12:15:01.865Z,174.38
2022-10-09T12:16:01.847Z,174.38
2022-10-09T12:17:01.934Z,168.75
2022-10-09T12:18:01.825Z,168.75
2022-10-09T12:19:01.809Z,168.75
2022-10-09T12:20:01.810Z,168.75
2022-10-09T12:21:01.765Z,168.75
2022-10-09T12:22:01.779Z,168.75
2022-10-09T12:23:21.869Z,168.75
2022-10-09T12:24:02.737Z,168.75
2022-10-09T12:25:01.730Z,168.75
2022-10-09T12:26:01.733Z,168.75
2022-10-09T12:27:01.686Z,168.75
2022-10-09T12:28:01.677Z,168.75
2022-10-09T12:29:01.679Z,168.75
2022-10-09T12:30:01.659Z,168.75
2022-10-09T12:31:01.698Z,168.75
2022-10-09T12:32:01.628Z,168.75
2022-10-09T12:33:01.618Z,168.75
2022-10-09T12:34:01.617Z,168.75
2022-10-09T12:35:01.591Z,168.75
2022-10-09T12:36:01.591Z,168.75
2022-10-09T12:37:01.561Z,163.12
2022-10-09T12:38:01.563Z,168.75
2022-10-09T12:39:01.544Z,168.75
2022-10-09T12:40:01.531Z,163.12
2022-10-09T12:41:01.503Z,163.12
2022-10-09T12:42:01.514Z,163.12
2022-10-09T12:43:01.480Z,163.12
2022-10-09T12:44:01.474Z,163.12
2022-10-09T12:45:01.453Z,163.12
2022-10-09T12:46:01.500Z,163.12
2022-10-09T12:47:01.419Z,163.12
2022-10-09T12:48:01.418Z,163.12
2022-10-09T12:49:01.403Z,168.75